Time;durP1;ratioP1;P1;durP2;ratioP2;P2;SDS_P1;SDS_P2;PMS_P1;PMS_P2;Temp;Humidity;BMP_temperature;BMP_pressure;BME280_temperature;BME280_humidity;BME280_pressure;Samples;Min_cycle;Max_cycle;Signal;HPM_P1;HPM_P2
2021/03/12 00:01:06;;;;;;;71.38;37.30;;;9.00;99.90;;;;;;4917501;29;20707;-73
2021/03/12 00:03:34;;;;;;;74.18;36.97;;;9.00;99.90;;;;;;4918930;29;20032;-73
2021/03/12 00:06:03;;;;;;;74.78;38.58;;;9.00;99.90;;;;;;4919633;29;20550;-73
2021/03/12 00:08:34;;;;;;;69.03;35.95;;;9.00;99.90;;;;;;4917688;29;20032;-73
2021/03/12 00:11:01;;;;;;;71.60;35.77;;;9.00;99.90;;;;;;4917252;29;20087;-73
2021/03/12 00:13:27;;;;;;;72.07;35.45;;;9.10;99.90;;;;;;4919617;29;20039;-73
2021/03/12 00:15:54;;;;;;;65.75;35.60;;;9.10;99.90;;;;;;4926354;29;20031;-73
2021/03/12 00:18:39;;;;;;;70.82;36.67;;;9.10;99.90;;;;;;4920388;29;20024;-73
2021/03/12 00:21:06;;;;;;;64.97;35.22;;;9.10;99.90;;;;;;4937463;29;20355;-74
2021/03/12 00:23:33;;;;;;;66.95;37.00;;;9.00;99.90;;;;;;4937665;29;20031;-73
2021/03/12 00:25:58;;;;;;;70.68;35.03;;;9.00;99.90;;;;;;4928514;29;20111;-73
2021/03/12 00:28:24;;;;;;;71.55;38.13;;;9.00;99.90;;;;;;4918416;29;20111;-74
2021/03/12 00:30:50;;;;;;;63.05;34.72;;;9.10;99.90;;;;;;4918474;29;20466;-74
2021/03/12 00:33:17;;;;;;;65.57;35.28;;;9.10;99.90;;;;;;4918490;29;20470;-74
2021/03/12 00:35:44;;;;;;;67.00;35.63;;;9.10;99.90;;;;;;4924582;29;20034;-73
2021/03/12 00:38:12;;;;;;;62.60;33.78;;;9.10;99.90;;;;;;4920205;29;20032;-73
2021/03/12 00:40:54;;;;;;;57.17;33.53;;;9.10;99.90;;;;;;4916441;29;20532;-73
2021/03/12 00:43:21;;;;;;;61.90;33.92;;;9.10;99.90;;;;;;4918158;29;20111;-73
2021/03/12 00:45:53;;;;;;;66.32;35.00;;;9.10;99.90;;;;;;4904575;29;20040;-73
2021/03/12 00:48:19;;;;;;;57.13;32.40;;;9.10;99.90;;;;;;4937055;29;20039;-73
2021/03/12 00:50:45;;;;;;;61.72;33.05;;;9.10;99.90;;;;;;4936994;29;20035;-73
2021/03/12 00:53:11;;;;;;;59.20;33.03;;;9.10;99.90;;;;;;4916620;29;20063;-73
2021/03/12 00:55:37;;;;;;;62.58;33.92;;;9.10;99.90;;;;;;4918999;29;20070;-73
2021/03/12 00:58:05;;;;;;;62.13;34.33;;;9.10;99.90;;;;;;4919879;29;20031;-73
2021/03/12 01:00:33;;;;;;;57.78;32.08;;;9.10;99.90;;;;;;4932865;29;20033;-73
2021/03/12 01:02:59;;;;;;;68.38;34.05;;;9.10;99.90;;;;;;4940082;29;20042;-74
2021/03/12 01:05:26;;;;;;;57.63;32.22;;;9.10;99.90;;;;;;4936756;29;20110;-74
2021/03/12 01:07:52;;;;;;;58.22;32.92;;;9.20;99.90;;;;;;4936367;29;20074;-73
2021/03/12 01:10:20;;;;;;;62.92;33.60;;;9.20;99.90;;;;;;4936558;29;20079;-73
2021/03/12 01:12:46;;;;;;;58.42;32.10;;;9.20;99.90;;;;;;4919211;29;20775;-73
2021/03/12 01:15:14;;;;;;;56.83;34.20;;;9.20;99.90;;;;;;4916270;29;20044;-73
2021/03/12 01:17:40;;;;;;;59.92;32.00;;;9.20;99.90;;;;;;4917501;29;20532;-73
2021/03/12 01:20:13;;;;;;;65.75;33.35;;;9.20;99.90;;;;;;4917231;29;20032;-73
2021/03/12 01:22:39;;;;;;;59.50;32.70;;;9.20;99.90;;;;;;4917490;29;20028;-73
2021/03/12 01:25:10;;;;;;;58.38;33.50;;;9.20;99.90;;;;;;4917341;29;20494;-73
2021/03/12 01:27:39;;;;;;;56.13;32.88;;;9.20;99.90;;;;;;4900382;29;20423;-73
2021/03/12 01:30:31;;;;;;;60.88;32.30;;;9.30;99.90;;;;;;4917204;29;20036;-73
2021/03/12 01:32:56;;;;;;;58.30;33.47;;;9.30;99.90;;;;;;4917201;29;20617;-73
2021/03/12 01:35:22;;;;;;;53.60;32.08;;;9.30;99.90;;;;;;4915950;29;20024;-73
2021/03/12 01:37:48;;;;;;;60.22;36.05;;;9.30;99.90;;;;;;4917210;29;20360;-73
2021/03/12 01:40:17;;;;;;;53.22;31.45;;;9.30;99.90;;;;;;4916995;29;20031;-73
2021/03/12 01:42:42;;;;;;;54.38;32.85;;;9.30;99.90;;;;;;4917173;29;20508;-73
2021/03/12 01:45:14;;;;;;;53.20;31.63;;;9.30;99.90;;;;;;4916866;29;20036;-73
2021/03/12 01:47:41;;;;;;;56.63;32.80;;;9.30;99.90;;;;;;4920980;29;20027;-73
2021/03/12 01:50:07;;;;;;;62.05;32.90;;;9.30;99.90;;;;;;4935813;29;20371;-74
2021/03/12 01:52:34;;;;;;;60.00;32.30;;;9.30;99.90;;;;;;4935731;29;20036;-73
2021/03/12 01:55:00;;;;;;;56.00;32.72;;;9.30;99.90;;;;;;4921080;29;20028;-73
2021/03/12 01:57:26;;;;;;;61.35;33.75;;;9.30;99.90;;;;;;4917558;29;20083;-73
2021/03/12 01:59:51;;;;;;;62.83;33.53;;;9.30;99.90;;;;;;4916913;29;20024;-73
2021/03/12 02:02:17;;;;;;;60.63;33.63;;;9.30;99.90;;;;;;4916725;29;20016;-73
2021/03/12 02:04:43;;;;;;;56.35;32.67;;;9.30;99.90;;;;;;4900632;29;20036;-73
2021/03/12 02:07:09;;;;;;;63.67;33.47;;;9.20;99.90;;;;;;4916680;29;20080;-73
2021/03/12 02:09:36;;;;;;;56.45;33.60;;;9.20;99.90;;;;;;4916699;29;20067;-73
2021/03/12 02:12:22;;;;;;;56.58;32.13;;;9.20;99.90;;;;;;4916504;29;20060;-73
2021/03/12 02:15:05;;;;;;;61.03;34.05;;;9.30;99.90;;;;;;4928990;29;20028;-73
2021/03/12 02:17:57;;;;;;;62.17;33.80;;;9.20;99.90;;;;;;4935739;29;20089;-73
2021/03/12 02:20:44;;;;;;;56.35;33.58;;;9.20;99.90;;;;;;4935037;29;20501;-74
2021/03/12 02:23:31;;;;;;;57.30;32.75;;;9.30;99.90;;;;;;4935290;29;20497;-73
2021/03/12 02:26:06;;;;;;;58.30;33.45;;;9.30;99.90;;;;;;4915232;29;20040;-74
2021/03/12 02:28:33;;;;;;;58.60;32.75;;;9.20;99.90;;;;;;4916373;29;20059;-73
2021/03/12 02:31:00;;;;;;;64.22;33.70;;;9.20;99.90;;;;;;4916637;29;20367;-73
2021/03/12 02:33:28;;;;;;;58.20;34.30;;;9.20;99.90;;;;;;4917438;29;20172;-73
2021/03/12 02:35:55;;;;;;;56.80;32.97;;;9.30;99.90;;;;;;4935199;29;20169;-73
2021/03/12 02:38:26;;;;;;;64.47;35.35;;;9.30;99.90;;;;;;4935408;29;20072;-72
2021/03/12 02:40:56;;;;;;;66.32;35.92;;;9.30;99.90;;;;;;4917976;29;20027;-73
2021/03/12 02:43:22;;;;;;;59.88;33.63;;;9.20;99.90;;;;;;4920914;29;20032;-73
2021/03/12 02:45:49;;;;;;;57.00;34.25;;;9.20;99.90;;;;;;4934906;29;20032;-73
2021/03/12 02:48:17;;;;;;;65.20;34.72;;;9.20;99.90;;;;;;4933525;29;20772;-73
2021/03/12 02:50:44;;;;;;;67.10;36.22;;;9.20;99.90;;;;;;4935263;29;20038;-73
2021/03/12 02:53:10;;;;;;;68.45;36.25;;;9.20;99.90;;;;;;4923607;29;20042;-73
2021/03/12 02:55:37;;;;;;;64.80;36.30;;;9.20;99.90;;;;;;4948310;29;20020;-73
2021/03/12 02:58:05;;;;;;;65.20;35.53;;;9.20;99.90;;;;;;4948149;29;20028;-73
2021/03/12 03:00:33;;;;;;;71.57;37.63;;;9.20;99.90;;;;;;4934887;29;20087;-73
2021/03/12 03:03:02;;;;;;;63.33;37.03;;;9.20;99.90;;;;;;4934877;29;20356;-73
2021/03/12 03:05:28;;;;;;;68.35;37.67;;;9.30;99.90;;;;;;4935104;29;20034;-73
2021/03/12 03:07:56;;;;;;;69.50;39.13;;;9.20;99.90;;;;;;4935203;29;20028;-73
2021/03/12 03:10:25;;;;;;;64.50;37.30;;;9.20;99.90;;;;;;4917766;29;20046;-73
2021/03/12 03:12:52;;;;;;;72.60;39.47;;;9.30;99.90;;;;;;4934804;29;20039;-73
2021/03/12 03:15:21;;;;;;;68.80;38.33;;;9.20;99.90;;;;;;4935071;29;20051;-73
2021/03/12 03:17:49;;;;;;;68.50;37.83;;;9.20;99.90;;;;;;4935016;29;20030;-73
2021/03/12 03:20:16;;;;;;;66.32;37.63;;;9.20;99.90;;;;;;4933463;29;20031;-73
2021/03/12 03:22:43;;;;;;;64.95;37.75;;;9.20;99.90;;;;;;4934530;29;20035;-74
2021/03/12 03:25:10;;;;;;;62.53;36.05;;;9.20;99.90;;;;;;4934832;29;20028;-73
2021/03/12 03:27:37;;;;;;;65.53;36.63;;;9.30;99.90;;;;;;4934657;29;20024;-73
2021/03/12 03:30:08;;;;;;;68.47;38.38;;;9.30;99.90;;;;;;4918335;29;20422;-73
2021/03/12 03:32:35;;;;;;;65.93;37.40;;;9.30;99.90;;;;;;4920981;29;20051;-73
2021/03/12 03:35:01;;;;;;;75.32;37.58;;;9.20;99.90;;;;;;4938171;29;20038;-73
2021/03/12 03:37:30;;;;;;;66.50;40.08;;;9.20;99.90;;;;;;4921271;29;20023;-73
2021/03/12 03:39:56;;;;;;;70.95;39.95;;;9.20;99.90;;;;;;4938261;29;20519;-73
2021/03/12 03:42:27;;;;;;;72.68;39.85;;;9.20;99.90;;;;;;4937687;29;20032;-73
2021/03/12 03:44:56;;;;;;;70.15;40.30;;;9.20;99.90;;;;;;4937924;29;20107;-73
2021/03/12 03:47:23;;;;;;;69.55;41.08;;;9.10;99.90;;;;;;4925291;29;20034;-74
2021/03/12 03:49:50;;;;;;;71.45;39.40;;;9.10;99.90;;;;;;4920465;29;20024;-73
2021/03/12 03:52:19;;;;;;;72.78;41.30;;;9.10;99.90;;;;;;4920872;29;20032;-73
2021/03/12 03:54:47;;;;;;;71.53;40.65;;;9.10;99.90;;;;;;4917156;29;20024;-73
2021/03/12 03:57:15;;;;;;;70.47;40.35;;;9.10;99.90;;;;;;4926086;29;20021;-73
2021/03/12 03:59:41;;;;;;;71.25;41.97;;;9.10;99.90;;;;;;4917198;29;20028;-73
2021/03/12 04:02:12;;;;;;;71.68;40.80;;;9.10;99.90;;;;;;4917616;29;20024;-73
2021/03/12 04:04:39;;;;;;;79.47;42.07;;;9.10;99.90;;;;;;4917776;29;20064;-74
2021/03/12 04:07:07;;;;;;;67.00;39.60;;;9.10;99.90;;;;;;4920983;29;20267;-74
2021/03/12 04:09:34;;;;;;;73.03;38.92;;;9.20;99.90;;;;;;4937416;29;20649;-74
2021/03/12 04:12:00;;;;;;;72.45;41.70;;;9.10;99.90;;;;;;4926647;29;20055;-73
2021/03/12 04:14:27;;;;;;;78.35;43.92;;;9.10;99.90;;;;;;4917487;29;20475;-74
2021/03/12 04:16:53;;;;;;;72.35;42.85;;;9.20;99.90;;;;;;4917950;29;20697;-74
2021/03/12 04:19:20;;;;;;;73.25;41.30;;;9.20;99.90;;;;;;4936309;29;20055;-73
2021/03/12 04:21:47;;;;;;;77.57;42.13;;;9.10;99.90;;;;;;4928056;29;20036;-74
2021/03/12 04:24:13;;;;;;;75.88;41.25;;;9.10;99.90;;;;;;4917261;29;20111;-74
2021/03/12 04:26:39;;;;;;;82.03;44.45;;;9.20;99.90;;;;;;4917630;29;20434;-74
2021/03/12 04:29:05;;;;;;;79.82;43.60;;;9.10;99.90;;;;;;4936168;29;20360;-74
2021/03/12 04:31:31;;;;;;;81.57;45.90;;;9.10;99.90;;;;;;4937256;29;20382;-74
2021/03/12 04:33:57;;;;;;;84.15;45.15;;;9.10;99.90;;;;;;4937145;29;20027;-74
2021/03/12 04:36:25;;;;;;;75.85;42.40;;;9.10;99.90;;;;;;4937265;29;20023;-74
2021/03/12 04:38:51;;;;;;;78.20;42.13;;;9.10;99.90;;;;;;4921196;29;20039;-74
2021/03/12 04:41:17;;;;;;;79.10;43.25;;;9.10;99.90;;;;;;4917402;29;20119;-74
2021/03/12 04:43:43;;;;;;;77.35;42.85;;;9.20;99.90;;;;;;4918217;29;20036;-74
2021/03/12 04:46:12;;;;;;;78.28;42.85;;;9.20;99.90;;;;;;4918185;29;20386;-74
2021/03/12 04:48:40;;;;;;;70.95;41.35;;;9.20;99.90;;;;;;4928026;29;20031;-74
2021/03/12 04:51:08;;;;;;;82.15;44.95;;;9.20;99.90;;;;;;4936689;29;20032;-74
2021/03/12 04:53:34;;;;;;;81.15;43.13;;;9.20;99.90;;;;;;4916373;29;20035;-74
2021/03/12 04:56:00;;;;;;;76.55;44.20;;;9.20;99.90;;;;;;4901003;29;20024;-74
2021/03/12 04:58:26;;;;;;;81.97;45.33;;;9.20;99.90;;;;;;4901071;29;20060;-74
2021/03/12 05:00:53;;;;;;;74.63;42.70;;;9.10;99.90;;;;;;4900640;29;20024;-73
2021/03/12 05:03:19;;;;;;;72.40;40.35;;;9.10;99.90;;;;;;4951113;29;20142;-73
2021/03/12 05:05:46;;;;;;;83.50;44.33;;;9.10;99.90;;;;;;4949920;29;20103;-73
2021/03/12 05:08:13;;;;;;;88.88;47.08;;;9.00;99.90;;;;;;4919064;29;20490;-73
2021/03/12 05:10:55;;;;;;;87.82;45.80;;;9.00;99.90;;;;;;4936114;29;20024;-73
2021/03/12 05:13:20;;;;;;;88.80;47.67;;;9.10;99.90;;;;;;4936539;29;20111;-74
2021/03/12 05:15:46;;;;;;;86.78;47.05;;;9.10;99.90;;;;;;4936529;29;20614;-74
2021/03/12 05:18:12;;;;;;;87.10;47.55;;;9.00;99.90;;;;;;4919552;29;20115;-74
2021/03/12 05:20:37;;;;;;;84.50;47.13;;;9.10;99.90;;;;;;4936334;29;20035;-74
2021/03/12 05:23:03;;;;;;;87.53;46.17;;;9.10;99.90;;;;;;4936448;29;20035;-74
2021/03/12 05:25:29;;;;;;;83.03;47.20;;;9.10;99.90;;;;;;4934057;29;20086;-74
2021/03/12 05:27:54;;;;;;;82.90;45.80;;;9.10;99.90;;;;;;4933867;29;20028;-74
2021/03/12 05:30:20;;;;;;;78.25;43.90;;;9.10;99.90;;;;;;4934200;29;20036;-74
2021/03/12 05:32:46;;;;;;;83.95;44.15;;;9.10;99.90;;;;;;4931710;29;20067;-73
2021/03/12 05:35:12;;;;;;;79.13;43.80;;;9.00;99.90;;;;;;4933912;29;20063;-74
2021/03/12 05:37:38;;;;;;;82.40;45.20;;;9.00;99.90;;;;;;4917432;29;20035;-74
2021/03/12 05:40:05;;;;;;;72.50;41.85;;;8.90;99.90;;;;;;4934334;29;20091;-72
2021/03/12 05:42:31;;;;;;;64.97;40.20;;;8.90;99.90;;;;;;4933361;29;20079;-73
2021/03/12 05:44:59;;;;;;;73.43;42.63;;;8.90;99.90;;;;;;4933100;29;20482;-72
2021/03/12 05:47:25;;;;;;;72.22;39.70;;;8.80;99.90;;;;;;4934481;29;20032;-74
2021/03/12 05:49:54;;;;;;;69.55;41.17;;;8.80;99.90;;;;;;4918577;29;20038;-74
2021/03/12 05:52:20;;;;;;;75.25;42.88;;;8.80;99.90;;;;;;4921646;29;20371;-74
2021/03/12 05:54:46;;;;;;;85.60;44.08;;;8.80;99.90;;;;;;4916668;29;20032;-74
2021/03/12 05:57:12;;;;;;;90.07;44.25;;;8.80;99.90;;;;;;4921887;29;20019;-74
2021/03/12 05:59:39;;;;;;;70.15;40.85;;;8.80;99.90;;;;;;4918502;29;20454;-74
2021/03/12 06:02:05;;;;;;;73.07;41.13;;;8.70;99.90;;;;;;4935179;29;20483;-72
2021/03/12 06:04:30;;;;;;;92.35;47.05;;;8.60;99.90;;;;;;4934039;29;20028;-72
2021/03/12 06:06:56;;;;;;;84.25;44.42;;;8.60;99.90;;;;;;4918168;29;20034;-72
2021/03/12 06:09:23;;;;;;;87.47;45.85;;;8.60;99.90;;;;;;4935730;29;20542;-74
2021/03/12 06:11:53;;;;;;;87.55;46.03;;;8.60;99.90;;;;;;4910923;29;20079;-75
2021/03/12 06:14:19;;;;;;;78.38;45.00;;;8.60;99.90;;;;;;4916741;29;20031;-72
2021/03/12 06:16:49;;;;;;;89.10;45.65;;;8.50;99.90;;;;;;4914723;29;20088;-72
2021/03/12 06:19:19;;;;;;;81.55;46.78;;;8.50;99.90;;;;;;4880693;29;20029;-72
2021/03/12 06:21:47;;;;;;;82.68;44.72;;;8.50;99.90;;;;;;4897665;29;20066;-72
2021/03/12 06:24:26;;;;;;;84.55;47.30;;;8.50;99.90;;;;;;4896351;29;20101;-73
2021/03/12 06:26:52;;;;;;;85.53;46.88;;;8.50;99.90;;;;;;4881396;29;20055;-72
2021/03/12 06:29:18;;;;;;;86.32;47.45;;;8.50;99.90;;;;;;4915318;29;20404;-72
2021/03/12 06:31:53;;;;;;;93.38;49.35;;;8.50;99.90;;;;;;4915058;29;20036;-73
2021/03/12 06:34:19;;;;;;;89.97;47.33;;;8.50;99.90;;;;;;4914925;29;20431;-73
2021/03/12 06:36:45;;;;;;;94.80;49.60;;;8.50;99.90;;;;;;4896518;29;20028;-73
2021/03/12 06:39:11;;;;;;;88.82;49.28;;;8.50;99.90;;;;;;4880306;29;20444;-73
2021/03/12 06:41:42;;;;;;;91.25;50.65;;;8.60;99.90;;;;;;4896385;29;20029;-73
2021/03/12 06:44:30;;;;;;;99.00;51.58;;;8.60;99.90;;;;;;4897390;29;20029;-73
2021/03/12 06:46:57;;;;;;;88.55;49.20;;;8.60;99.90;;;;;;4898325;29;20021;-72
2021/03/12 06:49:23;;;;;;;88.18;49.80;;;8.70;99.90;;;;;;4912646;29;20028;-72
2021/03/12 06:52:05;;;;;;;99.50;52.05;;;8.70;99.90;;;;;;4916082;29;20032;-72
2021/03/12 06:54:32;;;;;;;103.22;52.42;;;8.70;99.90;;;;;;4916069;29;20031;-72
2021/03/12 06:56:59;;;;;;;97.20;51.67;;;8.70;99.90;;;;;;4899062;29;20043;-72
2021/03/12 06:59:32;;;;;;;101.25;53.85;;;8.70;99.90;;;;;;4917412;29;20493;-72
2021/03/12 07:02:06;;;;;;;89.90;50.42;;;8.70;99.90;;;;;;4898903;29;20498;-72
2021/03/12 07:04:33;;;;;;;101.70;51.40;;;8.70;99.90;;;;;;4891841;29;20035;-74
2021/03/12 07:07:00;;;;;;;100.78;51.88;;;8.70;99.90;;;;;;4917897;29;20028;-73
2021/03/12 07:09:27;;;;;;;103.72;53.20;;;8.80;99.90;;;;;;4919852;29;20486;-71
2021/03/12 07:11:56;;;;;;;95.38;51.53;;;8.80;99.90;;;;;;4907443;29;20056;-72
2021/03/12 07:14:22;;;;;;;96.30;51.42;;;8.80;99.90;;;;;;4919701;29;20027;-72
2021/03/12 07:16:50;;;;;;;98.22;50.35;;;8.90;99.90;;;;;;4938581;29;20079;-72
2021/03/12 07:19:17;;;;;;;91.25;49.22;;;8.90;99.90;;;;;;4938321;29;20027;-72
2021/03/12 07:21:47;;;;;;;96.25;49.13;;;9.00;99.90;;;;;;4938590;29;20024;-72
2021/03/12 07:24:15;;;;;;;95.57;50.33;;;9.00;99.90;;;;;;4938510;29;20518;-72
2021/03/12 07:26:41;;;;;;;86.35;47.15;;;9.10;99.90;;;;;;4920621;29;20160;-72
2021/03/12 07:29:11;;;;;;;92.00;48.95;;;9.10;99.90;;;;;;4938531;29;20118;-77
2021/03/12 07:31:39;;;;;;;90.82;47.88;;;9.20;99.90;;;;;;4921352;29;20036;-78
2021/03/12 07:34:19;;;;;;;91.53;49.03;;;9.20;99.90;;;;;;4920726;29;20032;-70
2021/03/12 07:36:49;;;;;;;84.40;46.28;;;9.30;99.90;;;;;;4937113;29;20034;-72
2021/03/12 07:39:23;;;;;;;90.65;47.60;;;9.40;99.90;;;;;;4928382;29;20035;-78
2021/03/12 07:41:49;;;;;;;92.45;49.35;;;9.40;99.90;;;;;;4938369;29;20031;-77
2021/03/12 07:44:21;;;;;;;103.43;53.50;;;9.50;99.90;;;;;;4938566;29;20023;-78
2021/03/12 07:46:51;;;;;;;115.10;54.08;;;9.50;99.90;;;;;;4938467;29;20363;-78
2021/03/12 07:49:30;;;;;;;107.45;55.00;;;9.40;99.90;;;;;;4938514;29;20445;-79
2021/03/12 07:51:57;;;;;;;100.88;54.58;;;9.40;99.90;;;;;;4940148;29;20031;-79
2021/03/12 07:54:35;;;;;;;106.55;57.25;;;9.40;99.90;;;;;;4918074;29;20111;-79
2021/03/12 07:57:02;;;;;;;100.55;54.70;;;9.40;99.90;;;;;;4905488;29;20031;-80
2021/03/12 07:59:46;;;;;;;109.43;57.00;;;9.50;99.90;;;;;;4936231;29;20389;-80
2021/03/12 08:02:15;;;;;;;103.70;56.17;;;9.50;99.90;;;;;;4932953;29;20030;-80
2021/03/12 08:04:41;;;;;;;105.47;56.70;;;9.60;99.90;;;;;;4934847;29;20028;-80
2021/03/12 08:07:19;;;;;;;103.95;55.15;;;9.60;99.90;;;;;;4935041;29;20043;-80
2021/03/12 08:09:46;;;;;;;102.45;55.72;;;9.70;99.90;;;;;;4918554;29;20036;-79
2021/03/12 08:12:37;;;;;;;103.90;55.40;;;9.70;99.90;;;;;;4918088;29;20054;-80
2021/03/12 08:15:18;;;;;;;103.90;56.33;;;9.80;99.90;;;;;;4919231;29;20035;-79
2021/03/12 08:17:44;;;;;;;106.65;54.90;;;9.90;99.90;;;;;;4916082;29;20027;-73
2021/03/12 08:20:25;;;;;;;113.35;55.10;;;9.90;99.90;;;;;;4918026;29;20023;-74
2021/03/12 08:22:53;;;;;;;105.43;54.60;;;10.00;99.90;;;;;;4934146;29;20039;-73
2021/03/12 08:25:47;;;;;;;107.72;54.72;;;9.90;99.90;;;;;;4917931;29;20374;-73
2021/03/12 08:28:13;;;;;;;103.78;53.83;;;9.90;99.90;;;;;;4933342;29;20095;-73
2021/03/12 08:30:39;;;;;;;103.50;55.85;;;9.90;99.90;;;;;;4917529;29;20032;-72
2021/03/12 08:33:21;;;;;;;107.45;57.10;;;9.90;99.90;;;;;;4915554;29;20039;-72
2021/03/12 08:35:47;;;;;;;112.35;57.63;;;9.90;99.90;;;;;;4925133;29;20039;-72
2021/03/12 08:38:26;;;;;;;114.65;61.60;;;9.90;99.90;;;;;;4930692;29;20470;-72
2021/03/12 08:41:12;;;;;;;115.88;61.40;;;9.90;99.90;;;;;;4932397;29;20179;-73
2021/03/12 08:43:56;;;;;;;111.18;61.20;;;9.90;99.90;;;;;;4916496;29;20112;-72
2021/03/12 08:46:28;;;;;;;123.03;63.03;;;9.90;99.90;;;;;;4951030;28;20740;-72
2021/03/12 08:49:03;;;;;;;;;;;9.90;99.90;;;;;;4954021;29;20549;-72
2021/03/12 08:51:30;;;;;;;118.75;62.28;;;9.90;99.90;;;;;;4918880;29;19915;-73
2021/03/12 08:54:01;;;;;;;118.90;61.03;;;9.80;99.90;;;;;;4933882;29;20123;-73
2021/03/12 08:56:32;;;;;;;116.88;60.55;;;9.80;99.90;;;;;;4931328;29;20020;-72
2021/03/12 08:59:00;;;;;;;122.35;65.13;;;9.70;99.90;;;;;;4932367;29;20028;-72
2021/03/12 09:01:29;;;;;;;126.22;63.42;;;9.70;99.90;;;;;;4932033;29;20060;-72
2021/03/12 09:04:00;;;;;;;134.85;66.85;;;9.70;99.90;;;;;;4934431;29;20027;-73
2021/03/12 09:06:37;;;;;;;126.05;64.68;;;9.70;99.90;;;;;;4932320;29;20560;-72
2021/03/12 09:09:05;;;;;;;122.80;62.80;;;9.70;99.90;;;;;;4916461;29;20047;-73
2021/03/12 09:11:31;;;;;;;120.30;64.57;;;9.70;99.90;;;;;;4913731;29;20489;-72
2021/03/12 09:13:59;;;;;;;119.65;62.47;;;9.80;99.90;;;;;;4933383;29;20035;-73
2021/03/12 09:16:27;;;;;;;125.80;65.78;;;9.80;99.90;;;;;;4931107;29;20103;-73
2021/03/12 09:18:55;;;;;;;117.78;62.05;;;9.80;99.90;;;;;;4932963;29;20098;-72
2021/03/12 09:21:27;;;;;;;136.77;66.70;;;9.80;99.90;;;;;;4912730;29;20047;-73
2021/03/12 09:24:01;;;;;;;125.03;68.07;;;9.80;99.90;;;;;;4927169;29;20056;-72
2021/03/12 09:26:38;;;;;;;131.50;68.88;;;9.80;99.90;;;;;;4931819;29;20027;-73
2021/03/12 09:29:06;;;;;;;128.23;68.18;;;9.80;99.90;;;;;;4931589;29;20043;-73
2021/03/12 09:31:37;;;;;;;134.93;67.72;;;9.80;99.90;;;;;;4931257;29;20028;-73
2021/03/12 09:34:04;;;;;;;131.13;66.75;;;9.80;99.90;;;;;;4915847;29;20028;-73
2021/03/12 09:36:30;;;;;;;125.63;68.85;;;9.90;99.90;;;;;;4931398;29;20370;-73
2021/03/12 09:39:02;;;;;;;125.18;64.95;;;10.00;99.90;;;;;;4931937;29;20027;-72
2021/03/12 09:41:28;;;;;;;129.20;67.70;;;10.00;99.90;;;;;;4914412;29;20372;-73
2021/03/12 09:44:02;;;;;;;123.03;65.00;;;10.10;99.90;;;;;;4932352;29;20027;-72
2021/03/12 09:46:34;;;;;;;133.30;68.68;;;10.10;99.90;;;;;;4932352;29;20024;-72
2021/03/12 09:49:01;;;;;;;127.80;66.45;;;10.20;99.90;;;;;;4914480;29;20063;-73
2021/03/12 09:51:30;;;;;;;130.27;67.45;;;10.20;99.90;;;;;;4914785;29;20418;-73
2021/03/12 09:54:03;;;;;;;135.02;69.60;;;10.20;99.90;;;;;;4930957;29;20743;-72
2021/03/12 09:56:29;;;;;;;125.97;68.50;;;10.20;99.90;;;;;;4914396;29;20023;-73
2021/03/12 09:58:56;;;;;;;134.63;68.18;;;10.20;99.90;;;;;;4914648;29;20027;-73
2021/03/12 10:01:22;;;;;;;127.15;68.38;;;10.20;99.90;;;;;;4913781;29;20019;-73
2021/03/12 10:03:48;;;;;;;127.40;69.45;;;10.20;99.90;;;;;;4930797;29;20482;-73
2021/03/12 10:06:17;;;;;;;125.07;66.18;;;10.30;99.90;;;;;;4914330;29;20035;-74
2021/03/12 10:09:07;;;;;;;136.38;72.22;;;10.20;99.90;;;;;;4913235;29;20036;-74
2021/03/12 10:11:49;;;;;;;127.13;67.00;;;10.20;99.90;;;;;;4930383;29;20051;-73
2021/03/12 10:14:37;;;;;;;134.68;68.40;;;10.30;99.90;;;;;;4944442;29;20054;-73
2021/03/12 10:17:06;;;;;;;121.78;68.03;;;10.40;99.90;;;;;;4932588;29;20023;-73
2021/03/12 10:19:42;;;;;;;127.05;66.32;;;10.50;99.90;;;;;;4932824;29;20051;-73
2021/03/12 10:22:27;;;;;;;134.80;68.78;;;10.60;99.90;;;;;;4913102;29;20077;-73
2021/03/12 10:24:54;;;;;;;131.00;68.22;;;10.70;99.90;;;;;;4913413;29;20035;-73
2021/03/12 10:27:22;;;;;;;127.50;64.82;;;10.70;99.90;;;;;;4930026;29;20027;-74
2021/03/12 10:29:49;;;;;;;127.72;67.88;;;10.70;99.90;;;;;;4912314;29;20024;-74
2021/03/12 10:32:15;;;;;;;124.57;65.65;;;10.80;99.90;;;;;;4931937;29;20032;-80
2021/03/12 10:34:42;;;;;;;133.02;66.65;;;10.90;99.90;;;;;;4915247;29;20034;-79
2021/03/12 10:37:19;;;;;;;129.93;64.85;;;10.90;99.90;;;;;;4931545;29;20028;-79
2021/03/12 10:39:47;;;;;;;123.03;64.68;;;10.90;99.90;;;;;;4911201;29;20510;-73
2021/03/12 10:42:16;;;;;;;107.70;61.97;;;10.90;99.90;;;;;;4922007;29;20036;-73
2021/03/12 10:44:53;;;;;;;125.68;66.10;;;10.90;99.90;;;;;;4912661;29;20027;-73
2021/03/12 10:47:20;;;;;;;128.25;64.78;;;10.90;99.90;;;;;;4930524;29;20038;-74
2021/03/12 10:49:46;;;;;;;120.50;64.28;;;10.90;99.90;;;;;;4930542;29;20078;-73
2021/03/12 10:52:30;;;;;;;123.07;65.32;;;10.90;99.90;;;;;;4929499;29;20078;-74
2021/03/12 10:55:06;;;;;;;119.78;67.65;;;11.10;99.90;;;;;;4924175;28;20032;-73
2021/03/12 10:57:41;;;;;;;120.90;66.80;;;11.10;99.90;;;;;;4919481;29;20088;-74
2021/03/12 11:00:13;;;;;;;130.02;70.28;;;11.30;99.90;;;;;;4907149;29;20052;-73
2021/03/12 11:02:38;;;;;;;129.25;70.00;;;11.40;99.90;;;;;;4920201;29;20028;-73
2021/03/12 11:05:05;;;;;;;129.60;68.32;;;11.50;99.90;;;;;;4912532;29;20054;-73
2021/03/12 11:07:32;;;;;;;123.22;66.25;;;11.50;99.90;;;;;;4909848;29;20032;-73
2021/03/12 11:09:58;;;;;;;123.25;67.63;;;11.70;99.90;;;;;;4927989;29;20024;-74
2021/03/12 11:12:25;;;;;;;115.22;65.53;;;11.80;99.90;;;;;;4910538;29;20747;-74
2021/03/12 11:15:02;;;;;;;118.93;63.60;;;11.90;99.90;;;;;;4911082;29;20074;-75
2021/03/12 11:17:31;;;;;;;114.63;64.93;;;11.80;99.90;;;;;;4892380;29;20060;-74
2021/03/12 11:19:56;;;;;;;113.70;61.95;;;11.90;99.90;;;;;;4910366;29;20024;-73
2021/03/12 11:22:22;;;;;;;121.32;63.38;;;11.90;99.90;;;;;;4909381;29;20059;-73
2021/03/12 11:24:49;;;;;;;123.80;64.82;;;11.90;99.90;;;;;;4930574;29;20059;-79
2021/03/12 11:27:16;;;;;;;116.93;62.50;;;12.00;99.90;;;;;;4932124;29;20060;-73
2021/03/12 11:29:43;;;;;;;118.43;64.05;;;12.10;99.90;;;;;;4927286;29;20036;-73
2021/03/12 11:32:09;;;;;;;122.93;69.07;;;12.10;99.90;;;;;;4928242;29;20062;-81
2021/03/12 11:34:38;;;;;;;115.65;64.40;;;12.00;99.90;;;;;;4930379;29;20165;-80
2021/03/12 11:37:04;;;;;;;112.35;60.83;;;12.10;99.90;;;;;;4911894;29;20060;-81
2021/03/12 11:39:30;;;;;;;116.40;62.13;;;12.10;99.90;;;;;;4910888;29;20055;-74
2021/03/12 11:41:56;;;;;;;108.90;61.58;;;12.10;99.90;;;;;;4925922;29;20612;-73
2021/03/12 11:44:22;;;;;;;110.82;62.45;;;12.10;99.90;;;;;;4911828;29;20106;-75
2021/03/12 11:46:47;;;;;;;111.63;61.83;;;12.10;99.90;;;;;;4910969;29;20031;-73
2021/03/12 11:49:13;;;;;;;111.35;61.25;;;12.10;99.90;;;;;;4927716;29;20023;-73
2021/03/12 11:51:40;;;;;;;107.55;59.85;;;12.00;99.90;;;;;;4929836;29;20111;-79
2021/03/12 11:54:06;;;;;;;107.75;60.67;;;11.90;99.90;;;;;;4916757;29;20028;-82
2021/03/12 11:56:32;;;;;;;98.45;57.60;;;11.90;99.90;;;;;;4933455;29;20036;-80
2021/03/12 11:58:59;;;;;;;106.63;59.38;;;11.90;99.90;;;;;;4934878;29;20091;-80
2021/03/12 12:01:24;;;;;;;102.57;59.65;;;12.00;99.90;;;;;;4933826;29;20027;-79
2021/03/12 12:03:50;;;;;;;105.93;60.05;;;12.10;99.90;;;;;;4935400;29;20098;-79
2021/03/12 12:06:16;;;;;;;102.85;55.75;;;12.10;99.90;;;;;;4934467;29;20027;-79
2021/03/12 12:08:42;;;;;;;101.97;57.22;;;12.10;99.90;;;;;;4918114;29;20035;-73
2021/03/12 12:11:07;;;;;;;112.53;59.45;;;12.30;99.90;;;;;;4935314;29;20347;-74
2021/03/12 12:13:33;;;;;;;107.35;59.33;;;12.40;99.90;;;;;;4917330;29;20032;-74
2021/03/12 12:15:59;;;;;;;101.97;58.28;;;12.40;99.90;;;;;;4926757;29;20490;-73
2021/03/12 12:18:26;;;;;;;103.05;58.00;;;12.50;99.90;;;;;;4934806;29;20506;-79
2021/03/12 12:20:51;;;;;;;103.53;57.45;;;12.50;99.90;;;;;;4935338;29;20083;-79
2021/03/12 12:23:17;;;;;;;103.78;58.78;;;12.50;99.90;;;;;;4936053;29;20431;-79
2021/03/12 12:25:43;;;;;;;99.13;55.65;;;12.50;99.90;;;;;;4918578;29;20504;-79
2021/03/12 12:28:10;;;;;;;102.15;57.05;;;12.50;99.90;;;;;;4935976;29;20032;-80
2021/03/12 12:30:36;;;;;;;100.68;56.35;;;12.60;99.90;;;;;;4934174;29;20031;-79
2021/03/12 12:33:02;;;;;;;98.78;54.92;;;12.50;99.90;;;;;;4934109;29;20031;-79
2021/03/12 12:35:27;;;;;;;102.30;54.45;;;12.60;99.90;;;;;;4935685;29;20471;-79
2021/03/12 12:37:53;;;;;;;98.07;55.28;;;12.60;99.90;;;;;;4935146;29;20032;-79
2021/03/12 12:40:21;;;;;;;103.05;55.60;;;12.60;99.90;;;;;;4917754;29;20482;-79